Time;durP1;ratioP1;P1;durP2;ratioP2;P2;SDS_P1;SDS_P2;PMS_P1;PMS_P2;Temp;Humidity;BMP_temperature;BMP_pressure;BME280_temperature;BME280_humidity;BME280_pressure;Samples;Min_cycle;Max_cycle;Signal;HPM_P1;HPM_P2
2022/11/11 00:01:58;;;;;;;61.80;33.00;;;;;;;6.10;86.06;101707.61;103597;1296;22455;-62
2022/11/11 00:04:30;;;;;;;79.30;35.90;;;;;;;6.05;85.88;101713.92;103650;1303;22598;-62
2022/11/11 00:07:01;;;;;;;89.20;44.20;;;;;;;6.00;85.74;101711.69;103632;1303;22518;-61
2022/11/11 00:09:34;;;;;;;89.50;45.60;;;;;;;5.93;85.92;101715.02;103669;1282;25541;-62
2022/11/11 00:12:06;;;;;;;99.00;50.60;;;;;;;5.86;85.97;101711.03;103588;1297;22453;-63
2022/11/11 00:14:37;;;;;;;90.00;45.10;;;;;;;5.80;86.23;101707.90;103693;1303;25209;-62
2022/11/11 00:25:39;;;;;;;79.10;41.90;;;;;;;5.72;86.22;101692.52;103438;1281;22740;-62
2022/11/11 00:28:10;;;;;;;87.20;42.80;;;;;;;5.69;86.18;101689.32;103469;1303;22485;-62
2022/11/11 00:30:42;;;;;;;87.80;44.50;;;;;;;5.69;86.38;101687.02;103671;1303;25093;-62
2022/11/11 00:33:14;;;;;;;89.10;45.00;;;;;;;5.68;86.48;101690.67;103462;1299;24347;-62
2022/11/11 00:35:54;;;;;;;92.50;47.00;;;;;;;5.68;86.62;101696.54;103722;1304;22711;-62
2022/11/11 00:41:16;;;;;;;95.00;48.50;;;;;;;5.67;86.68;101692.98;103586;1304;24267;-61
2022/11/11 00:43:49;;;;;;;100.70;53.90;;;;;;;5.66;86.70;101691.17;103647;1281;22931;-61
2022/11/11 00:51:59;;;;;;;94.80;49.90;;;;;;;5.64;86.77;101691.52;103551;1296;23153;-62
2022/11/11 00:54:32;;;;;;;85.60;42.80;;;;;;;5.63;86.80;101688.19;104185;1282;24285;-62
2022/11/11 00:57:04;;;;;;;72.20;38.40;;;;;;;5.63;86.83;101688.98;104433;1283;22747;-63
2022/11/11 00:59:39;;;;;;;67.60;35.50;;;;;;;5.62;86.64;101692.56;103735;1289;22466;-61
2022/11/11 01:02:10;;;;;;;66.80;33.90;;;;;;;5.61;86.68;101692.56;103628;1303;22455;-62
2022/11/11 01:04:41;;;;;;;62.30;30.00;;;;;;;5.60;86.66;101696.85;103623;1305;22510;-60
2022/11/11 01:07:14;;;;;;;51.80;27.50;;;;;;;5.59;86.72;101703.91;103702;1303;23102;-62
2022/11/11 01:09:45;;;;;;;50.70;25.10;;;;;;;5.57;86.74;101703.69;103685;1295;22491;-61
2022/11/11 01:12:16;;;;;;;50.30;25.00;;;;;;;5.55;86.73;101703.63;103645;1303;24376;-61
2022/11/11 01:14:48;;;;;;;50.70;24.50;;;;;;;5.53;86.59;101701.27;103626;1303;24308;-62
2022/11/11 01:17:19;;;;;;;51.20;24.10;;;;;;;5.51;86.54;101703.98;103596;1274;22470;-61
2022/11/11 01:19:52;;;;;;;48.70;23.80;;;;;;;5.49;86.41;101706.05;103597;1281;25610;-62
2022/11/11 01:22:23;;;;;;;48.50;21.60;;;;;;;5.46;86.51;101710.20;103482;1274;24257;-60
2022/11/11 01:24:55;;;;;;;45.00;22.90;;;;;;;5.43;86.67;101712.04;103624;1304;22569;-61
2022/11/11 01:27:27;;;;;;;43.40;21.10;;;;;;;5.43;86.79;101711.80;103864;1273;22465;-61
2022/11/11 01:29:59;;;;;;;43.40;21.20;;;;;;;5.41;86.69;101712.45;103663;1303;24262;-61
2022/11/11 01:32:30;;;;;;;42.70;20.80;;;;;;;5.41;86.78;101706.77;103798;1299;24296;-61
2022/11/11 01:35:01;;;;;;;40.00;19.40;;;;;;;5.40;86.86;101707.87;103840;1298;25262;-60
2022/11/11 01:37:34;;;;;;;40.40;18.90;;;;;;;5.39;86.92;101703.85;103693;1304;22740;-61
2022/11/11 01:40:08;;;;;;;40.20;18.80;;;;;;;5.37;87.10;101701.97;103580;1303;23636;-60
2022/11/11 01:42:51;;;;;;;38.30;18.50;;;;;;;5.36;86.99;101699.21;103664;1282;24260;-61
2022/11/11 01:45:50;;;;;;;33.60;16.50;;;;;;;5.35;86.96;101696.21;103646;1301;22473;-59
2022/11/11 01:51:25;;;;;;;39.40;15.80;;;;;;;5.35;87.11;101695.02;103704;1282;22476;-62
2022/11/11 01:54:00;;;;;;;35.10;15.50;;;;;;;5.35;87.17;101688.62;103687;1304;22495;-62
2022/11/11 01:56:33;;;;;;;33.60;15.80;;;;;;;5.33;87.14;101683.95;103787;1297;24417;-60
2022/11/11 01:59:09;;;;;;;37.60;15.80;;;;;;;5.33;87.24;101682.69;103657;1303;22464;-61
2022/11/11 02:01:41;;;;;;;34.10;14.50;;;;;;;5.32;87.32;101681.35;103624;1272;23196;-60
2022/11/11 02:07:07;;;;;;;27.90;12.80;;;;;;;5.29;87.31;101678.05;103734;1303;23980;-62
2022/11/11 02:09:40;;;;;;;26.10;12.30;;;;;;;5.27;87.44;101674.12;103642;1281;23235;-60
2022/11/11 02:15:02;;;;;;;32.90;12.80;;;;;;;5.25;87.76;101670.27;103634;1297;22848;-61
2022/11/11 02:17:35;;;;;;;29.20;12.90;;;;;;;5.25;87.76;101674.38;103754;1279;22484;-61
2022/11/11 02:20:11;;;;;;;26.20;10.90;;;;;;;5.25;87.83;101670.48;103672;1303;25402;-62
2022/11/11 02:22:48;;;;;;;27.70;12.30;;;;;;;5.26;87.77;101666.29;103664;1297;24244;-62
2022/11/11 02:25:23;;;;;;;29.30;13.30;;;;;;;5.26;87.93;101668.59;103614;1279;22536;-62
2022/11/11 02:27:58;;;;;;;27.70;11.30;;;;;;;5.27;88.02;101673.02;103582;1288;24384;-61
2022/11/11 02:30:30;;;;;;;30.10;11.50;;;;;;;5.26;88.10;101674.67;103775;1304;25568;-61
2022/11/11 02:33:02;;;;;;;26.90;11.60;;;;;;;5.25;88.08;101675.41;103632;1304;22626;-61
2022/11/11 02:35:36;;;;;;;29.80;12.90;;;;;;;5.23;88.38;101682.30;103741;1303;22461;-62
2022/11/11 02:38:10;;;;;;;25.70;11.00;;;;;;;5.20;88.41;101688.02;103702;1274;26539;-61
2022/11/11 02:43:32;;;;;;;24.10;10.40;;;;;;;5.16;88.21;101695.73;103419;1281;24413;-62
2022/11/11 02:46:05;;;;;;;27.80;11.90;;;;;;;5.14;88.13;101701.27;103470;1292;22721;-63
2022/11/11 02:48:37;;;;;;;26.00;10.20;;;;;;;5.13;88.18;101698.03;103519;1304;26724;-63
2022/11/11 02:51:09;;;;;;;25.40;9.60;;;;;;;5.13;88.18;101691.08;103506;1281;24380;-63
2022/11/11 02:53:41;;;;;;;24.80;10.70;;;;;;;5.14;88.17;101686.25;103359;1281;22478;-62
2022/11/11 02:57:05;;;;;;;22.70;9.60;;;;;;;5.15;88.12;101685.45;103547;1274;24716;-62
2022/11/11 02:59:05;;;;;;;24.80;9.70;;;;;;;5.17;88.05;101688.13;103482;1300;22450;-62
2022/11/11 03:01:37;;;;;;;25.40;10.00;;;;;;;5.17;87.99;101684.65;104039;1281;22481;-62
2022/11/11 03:04:09;;;;;;;24.60;10.50;;;;;;;5.17;87.94;101679.59;104170;1296;22540;-62
2022/11/11 03:06:40;;;;;;;26.80;10.30;;;;;;;5.17;88.07;101676.82;103455;1303;22473;-61
2022/11/11 03:09:12;;;;;;;28.60;10.90;;;;;;;5.17;87.93;101677.06;103472;1272;23531;-60
2022/11/11 03:11:44;;;;;;;23.40;10.70;;;;;;;5.16;87.99;101670.73;103550;1304;22602;-61
2022/11/11 03:14:15;;;;;;;24.30;10.20;;;;;;;5.17;88.17;101670.10;103440;1304;24798;-60
2022/11/11 03:19:36;;;;;;;26.10;10.70;;;;;;;5.16;88.43;101683.70;103263;1288;22543;-60
2022/11/11 03:22:08;;;;;;;29.50;11.30;;;;;;;5.16;88.46;101690.66;103372;1303;25326;-60
2022/11/11 03:27:28;;;;;;;24.10;9.80;;;;;;;5.19;88.62;101700.94;103311;1282;22479;-60
2022/11/11 03:29:59;;;;;;;25.40;10.50;;;;;;;5.19;88.60;101699.90;106933;1303;22191;-61
2022/11/11 03:32:30;;;;;;;28.00;10.70;;;;;;;5.19;88.70;101697.20;106300;1303;22665;-60
2022/11/11 03:35:02;;;;;;;23.50;10.70;;;;;;;5.21;88.61;101703.67;103436;1281;24445;-61
2022/11/11 03:40:22;;;;;;;28.30;10.70;;;;;;;5.19;88.77;101704.80;103459;1283;22732;-62
2022/11/11 03:42:53;;;;;;;27.40;11.40;;;;;;;5.17;88.82;101710.11;103243;1273;22488;-60
2022/11/11 03:45:25;;;;;;;24.50;10.20;;;;;;;5.18;88.94;101712.88;103298;1303;22470;-61
2022/11/11 03:47:57;;;;;;;28.50;11.00;;;;;;;5.18;89.05;101716.52;103417;1303;25429;-60
2022/11/11 03:50:28;;;;;;;29.90;12.80;;;;;;;5.17;89.03;101718.51;103494;1274;22468;-60
2022/11/11 03:53:00;;;;;;;29.40;11.90;;;;;;;5.17;89.16;101716.69;103312;1274;24417;-60
2022/11/11 03:55:31;;;;;;;27.40;11.10;;;;;;;5.17;89.20;101719.69;103413;1295;22731;-61
2022/11/11 03:58:03;;;;;;;23.00;10.30;;;;;;;5.17;89.27;101721.90;103358;1302;22477;-61
2022/11/11 04:00:35;;;;;;;24.00;11.50;;;;;;;5.16;89.40;101727.38;103462;1281;25687;-61
2022/11/11 04:11:38;;;;;;;29.90;11.40;;;;;;;5.19;89.70;101737.80;103324;1304;23212;-60
2022/11/11 04:17:00;;;;;;;27.50;11.50;;;;;;;5.19;89.64;101735.17;103294;1281;22467;-62
2022/11/11 04:22:21;;;;;;;28.90;11.70;;;;;;;5.17;89.64;101736.46;103314;1290;23213;-61
2022/11/11 04:27:41;;;;;;;25.30;11.70;;;;;;;5.15;89.74;101734.66;103209;1281;24457;-61
2022/11/11 04:30:13;;;;;;;26.70;10.70;;;;;;;5.14;89.71;101736.39;103372;1282;22424;-62
2022/11/11 04:32:47;;;;;;;24.80;11.00;;;;;;;5.12;89.78;101735.45;103488;1303;22558;-62
2022/11/11 04:35:18;;;;;;;26.30;11.20;;;;;;;5.10;89.74;101737.84;103377;1281;25348;-61
2022/11/11 04:37:50;;;;;;;27.00;9.90;;;;;;;5.10;89.88;101739.89;103319;1281;23092;-61
2022/11/11 04:43:12;;;;;;;23.70;9.40;;;;;;;5.11;90.16;101745.75;103236;1291;26571;-62
2022/11/11 04:45:44;;;;;;;28.70;10.50;;;;;;;5.12;90.28;101740.04;103424;1284;25221;-59
2022/11/11 04:48:17;;;;;;;24.90;9.70;;;;;;;5.13;90.47;101739.80;103430;1283;24238;-61
2022/11/11 04:50:48;;;;;;;22.60;9.20;;;;;;;5.14;90.58;101736.15;103428;1303;22488;-61
2022/11/11 04:53:19;;;;;;;25.60;10.20;;;;;;;5.16;90.68;101738.44;103271;1301;25409;-61
2022/11/11 04:58:41;;;;;;;25.90;10.90;;;;;;;5.19;91.11;101745.23;103258;1304;22429;-60
2022/11/11 05:03:14;;;;;;;26.70;10.80;;;;;;;5.20;91.27;101746.47;103284;1303;25259;-60
2022/11/11 05:04:04;;;;;;;22.80;10.00;;;;;;;5.23;91.17;101745.83;103196;1281;22415;-61
2022/11/11 05:09:25;;;;;;;27.60;9.90;;;;;;;5.27;91.00;101735.11;103297;1281;24323;-62
2022/11/11 05:11:56;;;;;;;23.20;10.20;;;;;;;5.28;91.02;101731.70;103368;1303;22576;-61
2022/11/11 05:22:56;;;;;;;25.90;10.70;;;;;;;5.34;91.81;101716.70;103279;1298;23194;-60
2022/11/11 05:25:29;;;;;;;30.20;11.10;;;;;;;5.35;92.01;101715.35;103316;1281;22465;-61
2022/11/11 05:28:00;;;;;;;28.70;11.30;;;;;;;5.37;92.12;101717.32;103340;1281;22895;-60
2022/11/11 05:30:31;;;;;;;31.90;12.40;;;;;;;5.38;92.23;101723.09;103303;1280;24349;-60
2022/11/11 05:33:03;;;;;;;27.90;10.30;;;;;;;5.39;92.27;101724.58;103337;1303;22474;-60
2022/11/11 05:35:36;;;;;;;28.40;11.60;;;;;;;5.41;92.39;101728.28;103339;1297;24426;-60
2022/11/11 05:38:23;;;;;;;27.10;11.10;;;;;;;5.43;92.50;101732.62;103194;1280;22463;-60
2022/11/11 05:40:57;;;;;;;28.20;11.00;;;;;;;5.44;92.30;101726.35;103210;1281;24500;-60
2022/11/11 05:43:28;;;;;;;27.40;10.60;;;;;;;5.45;92.30;101729.43;103206;1274;22477;-63
2022/11/11 05:45:59;;;;;;;26.70;10.50;;;;;;;5.46;92.29;101734.63;103261;1281;22859;-61
2022/11/11 05:48:30;;;;;;;26.40;10.40;;;;;;;5.48;92.17;101736.45;103346;1281;22469;-60
2022/11/11 05:51:02;;;;;;;31.20;11.20;;;;;;;5.49;92.35;101737.48;103282;1303;22829;-60
2022/11/11 05:53:33;;;;;;;23.90;9.70;;;;;;;5.50;92.41;101740.32;103340;1304;25612;-63
2022/11/11 05:56:05;;;;;;;24.10;10.40;;;;;;;5.50;92.48;101738.39;103239;1281;22626;-61
2022/11/11 05:58:36;;;;;;;29.00;11.70;;;;;;;5.52;92.80;101740.08;103266;1280;22490;-61
2022/11/11 06:01:07;;;;;;;30.60;12.10;;;;;;;5.53;92.82;101744.41;103256;1281;24444;-60
2022/11/11 06:03:39;;;;;;;31.50;12.70;;;;;;;5.54;93.02;101744.16;103291;1282;23900;-62
2022/11/11 06:06:10;;;;;;;31.10;12.00;;;;;;;5.56;93.34;101745.34;103321;1281;26575;-60
2022/11/11 06:08:42;;;;;;;27.00;12.10;;;;;;;5.58;93.65;101754.73;103462;1303;25119;-62
2022/11/11 06:11:13;;;;;;;27.10;10.80;;;;;;;5.61;93.69;101761.91;103485;1303;24244;-62
2022/11/11 06:13:44;;;;;;;30.80;13.20;;;;;;;5.64;93.85;101766.88;103509;1281;24260;-62
2022/11/11 06:16:16;;;;;;;30.50;11.90;;;;;;;5.67;94.00;101772.05;103413;1278;25869;-62
2022/11/11 06:18:50;;;;;;;29.40;11.70;;;;;;;5.72;94.15;101772.74;103469;1303;24790;-63
2022/11/11 06:21:21;;;;;;;31.60;12.60;;;;;;;5.76;94.28;101775.23;103429;1283;25269;-62
2022/11/11 06:23:53;;;;;;;31.10;13.80;;;;;;;5.81;94.41;101783.27;103531;1304;25869;-61
2022/11/11 06:26:24;;;;;;;26.70;12.20;;;;;;;5.85;94.57;101781.20;103479;1303;22472;-62
2022/11/11 06:28:56;;;;;;;31.50;12.80;;;;;;;5.88;94.63;101767.00;103420;1288;24451;-62
2022/11/11 06:31:29;;;;;;;30.70;12.60;;;;;;;5.92;94.83;101769.66;103247;1291;22478;-62
2022/11/11 06:34:00;;;;;;;29.30;12.30;;;;;;;5.97;94.83;101766.45;103337;1279;22471;-63
2022/11/11 06:36:33;;;;;;;30.90;13.20;;;;;;;6.01;94.81;101768.70;103257;1280;22483;-63
2022/11/11 06:39:05;;;;;;;35.40;13.80;;;;;;;6.06;95.09;101770.88;103366;1304;22481;-63
2022/11/11 06:41:37;;;;;;;32.50;13.90;;;;;;;6.09;95.15;101774.09;103303;1303;22466;-63
2022/11/11 06:44:09;;;;;;;29.00;13.30;;;;;;;6.13;95.21;101773.88;103243;1282;25363;-63
2022/11/11 06:46:40;;;;;;;35.70;14.80;;;;;;;6.17;95.31;101777.33;103480;1281;22516;-62
2022/11/11 06:49:12;;;;;;;36.30;15.10;;;;;;;6.20;95.31;101771.19;103368;1281;24389;-63
2022/11/11 06:51:43;;;;;;;33.60;15.30;;;;;;;6.25;95.45;101775.27;103237;1281;25295;-63
2022/11/11 06:54:14;;;;;;;32.00;14.40;;;;;;;6.30;95.39;101770.77;103286;1303;22780;-62
2022/11/11 06:56:47;;;;;;;33.00;13.40;;;;;;;6.34;95.41;101776.44;103341;1304;22646;-63
2022/11/11 06:59:19;;;;;;;32.60;13.70;;;;;;;6.38;95.54;101779.23;103316;1305;24266;-63
2022/11/11 07:01:52;;;;;;;31.70;15.00;;;;;;;6.42;95.56;101782.13;103206;1291;25521;-62
2022/11/11 07:04:25;;;;;;;30.70;14.80;;;;;;;6.46;95.75;101780.27;103185;1281;22473;-63
2022/11/11 07:06:56;;;;;;;31.30;13.80;;;;;;;6.50;95.63;101776.42;103239;1282;22474;-63
2022/11/11 07:09:28;;;;;;;32.70;13.40;;;;;;;6.53;95.61;101770.90;103286;1274;22472;-63
2022/11/11 07:12:00;;;;;;;34.90;15.00;;;;;;;6.57;95.70;101765.08;103265;1303;25527;-63
2022/11/11 07:14:33;;;;;;;32.00;13.40;;;;;;;6.60;95.71;101758.44;103392;1304;22590;-62
2022/11/11 07:17:06;;;;;;;34.40;14.20;;;;;;;6.64;95.71;101761.81;103359;1303;23915;-63
2022/11/11 07:19:37;;;;;;;31.30;13.00;;;;;;;6.68;95.72;101760.90;103264;1281;24330;-63
2022/11/11 07:22:09;;;;;;;32.30;14.10;;;;;;;6.71;95.69;101761.31;103281;1281;22474;-63
2022/11/11 07:24:40;;;;;;;29.90;13.80;;;;;;;6.76;95.84;101762.94;103302;1288;22598;-64
2022/11/11 07:27:11;;;;;;;34.20;14.30;;;;;;;6.80;95.85;101763.66;103292;1277;22933;-63
2022/11/11 07:29:43;;;;;;;33.90;14.20;;;;;;;6.85;95.84;101767.10;103568;1303;22500;-63
2022/11/11 07:32:16;;;;;;;28.90;13.30;;;;;;;6.89;95.86;101772.66;103320;1287;25575;-63
2022/11/11 07:34:49;;;;;;;29.90;12.70;;;;;;;6.94;95.93;101776.17;103314;1280;22466;-62
2022/11/11 07:37:20;;;;;;;32.60;13.40;;;;;;;6.99;96.02;101770.23;103206;1281;23975;-63
2022/11/11 07:39:53;;;;;;;35.50;13.30;;;;;;;7.04;96.14;101771.91;103231;1282;25047;-63
2022/11/11 07:42:25;;;;;;;36.60;14.10;;;;;;;7.09;96.08;101774.45;103278;1304;25326;-64
2022/11/11 07:44:58;;;;;;;33.70;14.60;;;;;;;7.15;96.09;101771.27;103299;1304;26533;-64
2022/11/11 07:47:29;;;;;;;32.30;13.60;;;;;;;7.20;96.18;101768.27;103428;1304;22929;-63
2022/11/11 07:50:01;;;;;;;39.50;15.90;;;;;;;7.26;96.17;101772.15;103254;1281;22488;-63
2022/11/11 07:52:33;;;;;;;39.60;13.90;;;;;;;7.32;96.17;101769.52;103291;1280;22459;-64
2022/11/11 07:55:05;;;;;;;39.80;14.10;;;;;;;7.37;96.20;101770.16;103330;1281;22750;-64
2022/11/11 07:57:37;;;;;;;36.90;14.50;;;;;;;7.42;96.29;101771.10;103400;1282;24259;-63
2022/11/11 08:00:11;;;;;;;33.80;13.50;;;;;;;7.47;96.26;101771.02;103461;1291;24882;-63
2022/11/11 08:02:49;;;;;;;30.40;11.10;;;;;;;7.53;96.15;101771.57;103435;1298;25430;-63
2022/11/11 08:05:20;;;;;;;29.10;9.60;;;;;;;7.58;96.28;101773.95;103589;1274;23314;-63
2022/11/11 08:07:53;;;;;;;27.90;11.00;;;;;;;7.63;96.20;101773.95;103454;1281;22477;-63
2022/11/11 08:10:24;;;;;;;29.90;10.10;;;;;;;7.68;95.99;101779.02;103396;1291;22472;-63
2022/11/11 08:15:49;;;;;;;23.70;8.70;;;;;;;7.79;95.92;101780.59;103379;1304;22514;-64
2022/11/11 08:18:22;;;;;;;23.80;9.90;;;;;;;7.84;95.91;101788.21;103562;1280;26537;-64
2022/11/11 08:20:54;;;;;;;25.50;9.10;;;;;;;7.89;95.94;101789.46;103512;1281;25336;-63
2022/11/11 08:23:31;;;;;;;27.70;9.50;;;;;;;7.95;95.93;101791.35;103549;1296;22539;-63
2022/11/11 08:26:04;;;;;;;23.80;8.00;;;;;;;8.00;95.84;101788.88;103481;1304;22502;-63
2022/11/11 08:28:36;;;;;;;28.50;8.60;;;;;;;8.05;95.92;101792.52;103617;1304;25404;-64
2022/11/11 08:31:08;;;;;;;22.10;7.90;;;;;;;8.09;95.87;101790.22;103369;1280;24898;-63
2022/11/11 08:33:40;;;;;;;25.00;8.60;;;;;;;8.14;95.80;101791.81;103588;1301;22598;-63
2022/11/11 08:36:12;;;;;;;19.50;7.40;;;;;;;8.21;95.74;101794.38;103501;1304;25379;-63
2022/11/11 08:38:44;;;;;;;24.50;7.70;;;;;;;8.27;95.73;101803.92;103561;1304;24296;-63
2022/11/11 08:41:15;;;;;;;27.40;7.80;;;;;;;8.33;95.74;101815.73;103482;1298;22511;-64
2022/11/11 08:43:47;;;;;;;21.20;8.10;;;;;;;8.40;95.76;101813.86;103508;1304;25377;-63
2022/11/11 08:46:19;;;;;;;21.60;6.80;;;;;;;8.45;95.88;101813.04;103444;1300;22466;-63
2022/11/11 08:48:51;;;;;;;20.40;7.40;;;;;;;8.52;95.79;101815.86;103536;1304;24259;-63
2022/11/11 08:51:23;;;;;;;21.80;8.10;;;;;;;8.57;95.80;101806.27;103551;1294;24344;-63
2022/11/11 08:53:54;;;;;;;26.60;8.60;;;;;;;8.62;95.61;101805.16;103581;1301;22771;-62
2022/11/11 08:56:26;;;;;;;22.10;8.30;;;;;;;8.66;95.46;101807.45;103561;1281;24323;-64
2022/11/11 08:58:58;;;;;;;21.50;7.70;;;;;;;8.70;95.41;101802.46;103537;1304;22469;-63
2022/11/11 09:01:29;;;;;;;23.80;7.90;;;;;;;8.74;95.20;101802.13;103434;1304;22475;-64
2022/11/11 09:04:01;;;;;;;25.00;8.80;;;;;;;8.78;95.40;101808.09;103407;1304;25448;-62
2022/11/11 09:06:33;;;;;;;21.90;7.30;;;;;;;8.81;95.18;101812.08;103322;1303;22601;-63
2022/11/11 09:09:05;;;;;;;24.60;9.00;;;;;;;8.86;95.12;101824.39;103310;1297;24450;-62
2022/11/11 09:11:37;;;;;;;23.50;8.30;;;;;;;8.90;94.99;101825.25;103294;1304;22468;-64
2022/11/11 09:14:08;;;;;;;25.70;8.60;;;;;;;8.94;95.10;101822.05;103305;1297;22474;-63
2022/11/11 09:16:40;;;;;;;22.30;8.60;;;;;;;9.00;95.13;101821.73;103364;1306;25291;-63
2022/11/11 09:19:11;;;;;;;22.20;8.10;;;;;;;9.06;95.07;101813.09;103214;1304;22476;-64
2022/11/11 09:21:43;;;;;;;23.10;9.70;;;;;;;9.10;95.10;101812.52;103291;1294;22617;-63
2022/11/11 09:24:16;;;;;;;25.40;10.10;;;;;;;9.14;94.94;101811.15;103273;1304;22475;-62
2022/11/11 09:26:49;;;;;;;27.00;8.80;;;;;;;9.20;94.83;101815.80;103715;1303;22711;-63
2022/11/11 09:29:21;;;;;;;22.40;9.10;;;;;;;9.25;94.99;101814.40;103386;1293;24296;-63
2022/11/11 09:31:53;;;;;;;22.70;9.00;;;;;;;9.31;95.03;101820.23;103424;1280;22466;-63
2022/11/11 09:34:24;;;;;;;19.70;7.00;;;;;;;9.37;94.96;101824.64;103333;1306;22593;-63
2022/11/11 09:36:56;;;;;;;21.00;7.60;;;;;;;9.42;94.81;101821.42;103299;1280;22465;-64
2022/11/11 09:39:28;;;;;;;23.60;8.40;;;;;;;9.47;94.78;101813.64;103376;1304;25453;-63
2022/11/11 09:42:08;;;;;;;25.00;8.30;;;;;;;9.53;94.68;101814.62;103383;1304;23587;-63
2022/11/11 09:45:00;;;;;;;20.20;7.00;;;;;;;9.60;94.76;101817.73;103312;1304;25273;-63
2022/11/11 09:47:39;;;;;;;21.00;7.00;;;;;;;9.68;94.63;101819.54;103416;1305;24177;-63
2022/11/11 09:50:14;;;;;;;16.50;5.90;;;;;;;9.74;94.40;101817.40;103457;1282;25285;-64
2022/11/11 09:52:52;;;;;;;16.90;5.50;;;;;;;9.79;94.05;101812.98;103294;1280;22464;-63
2022/11/11 09:55:27;;;;;;;20.30;7.60;;;;;;;9.85;94.10;101821.73;103197;1288;24220;-63
2022/11/11 09:58:04;;;;;;;21.00;6.50;;;;;;;9.92;94.01;101821.83;103259;1296;24286;-63
2022/11/11 10:00:41;;;;;;;20.20;6.50;;;;;;;9.98;93.90;101815.35;103230;1281;24618;-64
2022/11/11 10:03:18;;;;;;;21.50;6.10;;;;;;;10.05;93.88;101807.91;103279;1283;22474;-63
2022/11/11 10:05:55;;;;;;;17.90;6.10;;;;;;;10.11;93.64;101796.94;103418;1304;22528;-63
2022/11/11 10:08:29;;;;;;;19.50;5.60;;;;;;;10.19;93.16;101799.54;103411;1307;26453;-63
2022/11/11 10:11:05;;;;;;;17.80;5.30;;;;;;;10.27;93.22;101797.80;103366;1289;22464;-63
2022/11/11 10:13:39;;;;;;;19.70;6.80;;;;;;;10.33;93.16;101800.35;103251;1280;24321;-63
2022/11/11 10:16:21;;;;;;;18.90;5.60;;;;;;;10.41;93.06;101804.99;103159;1286;22724;-64
2022/11/11 10:19:08;;;;;;;16.70;5.30;;;;;;;10.49;92.79;101804.20;103311;1280;25540;-63
2022/11/11 10:21:50;;;;;;;15.00;4.30;;;;;;;10.58;92.31;101802.11;103455;1303;23222;-64
2022/11/11 10:24:32;;;;;;;18.60;5.70;;;;;;;10.66;92.01;101800.31;103352;1304;22628;-63
2022/11/11 10:27:13;;;;;;;15.00;4.90;;;;;;;10.75;91.69;101805.09;103369;1282;22460;-64
2022/11/11 10:29:46;;;;;;;16.20;4.10;;;;;;;10.82;90.88;101800.42;103270;1306;24226;-64
2022/11/11 10:32:20;;;;;;;13.10;4.00;;;;;;;10.87;90.62;101798.11;103064;1293;218174;-64
2022/11/11 10:34:52;;;;;;;15.80;4.20;;;;;;;10.93;90.60;101797.36;103244;1306;22451;-64
2022/11/11 10:37:27;;;;;;;13.90;4.20;;;;;;;10.99;90.48;101798.23;103197;1304;22522;-64
2022/11/11 10:40:07;;;;;;;16.60;4.80;;;;;;;11.04;90.42;101795.36;103187;1299;24326;-64
2022/11/11 10:42:39;;;;;;;17.50;4.50;;;;;;;11.11;90.14;101796.10;103351;1297;22698;-63
2022/11/11 10:45:20;;;;;;;16.90;3.80;;;;;;;11.17;89.99;101792.56;103281;1286;24947;-63
2022/11/11 10:47:56;;;;;;;16.60;3.90;;;;;;;11.22;89.64;101786.09;103322;1305;22542;-63
2022/11/11 10:50:33;;;;;;;14.30;4.20;;;;;;;11.28;89.35;101784.73;103503;1302;22598;-64
2022/11/11 10:53:12;;;;;;;17.50;4.30;;;;;;;11.32;89.22;101786.18;103279;1310;22587;-64
2022/11/11 10:55:49;;;;;;;12.50;3.30;;;;;;;11.38;88.92;101793.27;103194;1287;22454;-64
2022/11/11 10:58:28;;;;;;;12.50;3.40;;;;;;;11.43;88.71;101795.67;103262;1306;25385;-63
2022/11/11 11:01:05;;;;;;;19.70;3.30;;;;;;;11.48;88.45;101793.84;103341;1282;22471;-65
2022/11/11 11:03:41;;;;;;;14.60;3.90;;;;;;;11.53;88.28;101797.27;103209;1308;24510;-63
2022/11/11 11:06:18;;;;;;;13.20;2.90;;;;;;;11.57;87.97;101789.55;103376;1295;23041;-63
2022/11/11 11:08:53;;;;;;;12.20;2.10;;;;;;;11.62;87.72;101779.24;103478;1309;23933;-63
2022/11/11 11:11:30;;;;;;;13.20;3.00;;;;;;;11.67;87.40;101784.44;103417;1308;23916;-63
2022/11/11 11:14:07;;;;;;;11.10;3.10;;;;;;;11.72;87.26;101783.82;103209;1287;23207;-64
2022/11/11 11:16:43;;;;;;;10.60;2.90;;;;;;;11.78;86.81;101787.67;103175;1302;24369;-62
2022/11/11 11:19:20;;;;;;;11.20;2.90;;;;;;;11.82;86.53;101785.05;103318;1310;22509;-63
2022/11/11 11:21:55;;;;;;;10.60;2.50;;;;;;;11.86;86.51;101785.26;103319;1280;25278;-64
2022/11/11 11:24:28;;;;;;;11.70;2.60;;;;;;;11.90;86.64;101780.46;103404;1275;24336;-63
2022/11/11 11:27:01;;;;;;;12.50;2.40;;;;;;;11.94;85.95;101778.58;103292;1304;23180;-67
2022/11/11 11:29:36;;;;;;;10.20;2.30;;;;;;;11.98;85.81;101779.48;103290;1306;22474;-63
2022/11/11 11:32:16;;;;;;;9.90;3.00;;;;;;;12.01;85.34;101767.46;103347;1304;22483;-64
2022/11/11 11:34:50;;;;;;;12.70;3.10;;;;;;;12.05;85.39;101773.48;103260;1302;25311;-63
2022/11/11 11:37:24;;;;;;;11.30;2.90;;;;;;;12.08;85.62;101771.86;103179;1299;24341;-64
2022/11/11 11:40:04;;;;;;;13.90;3.20;;;;;;;12.11;85.33;101771.73;103271;1280;22467;-64
2022/11/11 11:42:37;;;;;;;10.70;2.40;;;;;;;12.15;84.71;101776.41;103320;1304;25373;-63
2022/11/11 11:45:23;;;;;;;12.40;2.60;;;;;;;12.19;84.42;101775.33;103334;1282;23379;-63
2022/11/11 11:48:13;;;;;;;8.40;2.00;;;;;;;12.22;83.52;101774.49;103483;1305;22494;-63
2022/11/11 11:50:51;;;;;;;12.00;2.30;;;;;;;12.26;83.69;101767.58;103370;1304;25584;-63
2022/11/11 11:53:50;;;;;;;9.60;2.30;;;;;;;12.29;83.38;101761.13;103245;1283;22587;-63
2022/11/11 11:56:32;;;;;;;12.30;3.20;;;;;;;12.32;83.42;101761.34;102814;1286;22484;-63
2022/11/11 11:59:11;;;;;;;10.40;2.90;;;;;;;12.34;83.28;101771.20;102955;1279;22530;-65
2022/11/11 12:01:55;;;;;;;11.20;3.30;;;;;;;12.36;82.94;101767.50;102847;1285;25336;-63
2022/11/11 12:04:59;;;;;;;13.30;3.30;;;;;;;12.38;83.00;101756.98;102764;1311;23224;-63
2022/11/11 12:07:47;;;;;;;13.30;3.70;;;;;;;12.40;82.64;101757.45;102704;1310;22542;-63
2022/11/11 12:10:31;;;;;;;12.20;2.80;;;;;;;12.41;82.34;101761.32;102887;1294;25469;-63
2022/11/11 12:13:13;;;;;;;11.80;3.40;;;;;;;12.43;82.56;101758.85;102652;1310;23452;-63
2022/11/11 12:15:57;;;;;;;11.50;2.50;;;;;;;12.45;81.93;101766.39;102834;1294;22485;-63
2022/11/11 12:19:02;;;;;;;11.70;2.60;;;;;;;12.48;82.06;101766.60;102781;1286;25367;-63
2022/11/11 12:21:44;;;;;;;10.70;2.60;;;;;;;12.52;81.28;101760.29;102440;1315;22997;-64
2022/11/11 12:24:31;;;;;;;10.60;2.20;;;;;;;12.55;80.75;101760.97;102435;1291;22499;-66
2022/11/11 12:27:09;;;;;;;9.10;1.90;;;;;;;12.60;80.74;101762.39;102443;1315;25274;-67
2022/11/11 12:29:59;;;;;;;7.50;1.90;;;;;;;12.64;80.01;101750.71;102382;1315;25405;-63
2022/11/11 12:32:59;;;;;;;9.30;2.20;;;;;;;12.68;79.62;101748.63;102581;1292;25357;-63
2022/11/11 12:35:42;;;;;;;7.00;1.80;;;;;;;12.72;78.87;101744.64;102940;1309;24421;-64
2022/11/11 12:38:26;;;;;;;10.30;1.70;;;;;;;12.75;77.76;101736.69;102731;1310;25530;-63
2022/11/11 12:41:08;;;;;;;10.80;1.90;;;;;;;12.77;78.45;101735.08;103039;1290;25295;-63
2022/11/11 12:43:49;;;;;;;10.90;2.00;;;;;;;12.79;77.91;101729.56;102674;1286;22618;-64
2022/11/11 12:46:34;;;;;;;7.00;1.70;;;;;;;12.79;77.73;101726.02;102791;1287;25248;-64
2022/11/11 12:49:24;;;;;;;8.80;2.10;;;;;;;12.79;77.25;101729.55;102699;1292;22960;-63
2022/11/11 12:52:12;;;;;;;10.30;1.70;;;;;;;12.79;77.51;101732.03;102800;1286;22492;-69
2022/11/11 12:54:56;;;;;;;9.40;1.90;;;;;;;12.79;77.02;101743.02;102785;1309;22498;-63
2022/11/11 12:57:35;;;;;;;9.50;2.00;;;;;;;12.79;76.83;101753.42;102920;1286;22608;-63
2022/11/11 13:00:17;;;;;;;14.00;2.30;;;;;;;12.79;76.73;101755.52;103491;1304;22468;-64